createdAt,value
2022-10-19T00:01:21.097Z,4.20
2022-10-19T00:06:25.648Z,4.18
2022-10-19T00:08:57.970Z,4.20
2022-10-19T00:11:25.636Z,4.22
2022-10-19T00:13:53.561Z,4.37
2022-10-19T00:16:20.886Z,4.40
2022-10-19T00:18:48.128Z,4.30
2022-10-19T00:21:17.421Z,4.53
2022-10-19T00:23:45.052Z,4.05
2022-10-19T00:26:13.071Z,3.93
2022-10-19T00:28:40.433Z,3.60
2022-10-19T00:31:09.697Z,3.40
2022-10-19T00:33:36.981Z,3.83
2022-10-19T00:36:04.776Z,3.70
2022-10-19T00:38:32.245Z,3.80
2022-10-19T00:40:59.505Z,3.55
2022-10-19T00:43:28.397Z,4.35
2022-10-19T00:45:55.630Z,3.75
2022-10-19T00:48:25.792Z,4.07
2022-10-19T00:50:54.778Z,3.43
2022-10-19T00:53:22.211Z,4.25
2022-10-19T00:55:49.501Z,4.13
2022-10-19T00:58:16.769Z,4.57
2022-10-19T01:00:44.163Z,5.00
2022-10-19T01:03:12.755Z,4.13
2022-10-19T01:05:40.158Z,4.72
2022-10-19T01:08:07.844Z,4.63
2022-10-19T01:10:38.270Z,4.47
2022-10-19T01:13:05.503Z,4.80
2022-10-19T01:15:38.943Z,4.10
2022-10-19T01:18:24.868Z,3.95
2022-10-19T01:20:55.143Z,4.70
2022-10-19T01:23:22.365Z,4.45
2022-10-19T01:25:49.611Z,4.15
2022-10-19T01:28:35.573Z,4.20
2022-10-19T01:31:05.748Z,4.00
2022-10-19T01:33:32.944Z,3.97
2022-10-19T01:36:06.516Z,3.70
2022-10-19T01:38:42.915Z,3.90
2022-10-19T01:41:14.090Z,4.17
2022-10-19T01:44:09.062Z,3.97
2022-10-19T01:46:40.719Z,4.45
2022-10-19T01:49:15.256Z,3.67
2022-10-19T01:51:44.658Z,3.58
2022-10-19T01:54:14.422Z,3.50
2022-10-19T01:56:43.312Z,2.90
2022-10-19T01:59:12.080Z,2.85
2022-10-19T02:01:42.259Z,3.13
2022-10-19T02:04:10.132Z,2.92
2022-10-19T02:06:37.654Z,2.97
2022-10-19T02:09:04.985Z,3.28
2022-10-19T02:11:32.566Z,2.90
2022-10-19T02:14:05.120Z,3.08
2022-10-19T02:16:37.950Z,2.95
2022-10-19T02:19:06.260Z,2.80
2022-10-19T02:21:33.540Z,3.17
2022-10-19T02:24:00.965Z,2.97
2022-10-19T02:26:28.350Z,2.72
2022-10-19T02:28:56.474Z,2.70
2022-10-19T02:31:24.232Z,3.57
2022-10-19T02:33:51.654Z,2.63
2022-10-19T02:36:19.299Z,2.97
2022-10-19T02:38:46.487Z,3.08
2022-10-19T02:41:25.103Z,2.78
2022-10-19T02:43:55.141Z,2.53
2022-10-19T02:46:35.696Z,2.80
2022-10-19T02:49:03.764Z,2.78
2022-10-19T02:51:32.518Z,3.08
2022-10-19T02:54:02.626Z,2.90
2022-10-19T02:56:32.501Z,3.07
2022-10-19T02:58:59.749Z,2.60
2022-10-19T03:01:27.011Z,2.67
2022-10-19T03:03:54.273Z,2.63
2022-10-19T03:06:21.557Z,2.45
2022-10-19T03:08:48.835Z,2.50
2022-10-19T03:11:16.036Z,2.75
2022-10-19T03:13:43.471Z,3.22
2022-10-19T03:16:11.831Z,2.95
2022-10-19T03:18:39.147Z,2.35
2022-10-19T03:21:10.611Z,2.50
2022-10-19T03:23:38.502Z,2.78
2022-10-19T03:26:07.633Z,2.85
2022-10-19T03:28:37.902Z,2.65
2022-10-19T03:31:05.190Z,3.17
2022-10-19T03:33:32.457Z,2.60
2022-10-19T03:36:20.604Z,3.05
2022-10-19T03:38:48.370Z,2.72
2022-10-19T03:41:15.636Z,2.45
2022-10-19T03:43:42.887Z,2.67
2022-10-19T03:46:10.584Z,2.73
2022-10-19T03:48:37.801Z,2.38
2022-10-19T03:51:06.521Z,2.92
2022-10-19T03:53:34.269Z,2.65
2022-10-19T03:56:02.342Z,2.15
2022-10-19T03:58:30.173Z,3.03
2022-10-19T04:00:57.418Z,2.63
2022-10-19T04:03:24.807Z,2.25
2022-10-19T04:05:52.192Z,2.45
2022-10-19T04:08:19.525Z,2.40
2022-10-19T04:10:46.815Z,3.33
2022-10-19T04:13:14.032Z,2.22
2022-10-19T04:15:41.355Z,2.40
2022-10-19T04:18:08.658Z,3.17
2022-10-19T04:20:35.922Z,2.22
2022-10-19T04:23:03.192Z,2.80
2022-10-19T04:25:30.472Z,2.10
2022-10-19T04:27:57.723Z,2.78
2022-10-19T04:30:24.945Z,2.90
2022-10-19T04:32:52.206Z,2.40
2022-10-19T04:35:19.451Z,2.63
2022-10-19T04:37:46.788Z,2.20
2022-10-19T04:40:15.040Z,2.95
2022-10-19T04:42:42.516Z,1.90
2022-10-19T04:45:10.053Z,2.33
2022-10-19T04:47:37.311Z,2.90
2022-10-19T04:50:04.748Z,2.22
2022-10-19T04:52:31.951Z,2.22
2022-10-19T04:54:59.211Z,2.83
2022-10-19T04:57:26.578Z,2.40
2022-10-19T04:59:53.791Z,2.53
2022-10-19T05:02:21.031Z,2.22
2022-10-19T05:04:48.931Z,2.13
2022-10-19T05:07:16.444Z,2.33
2022-10-19T05:09:43.835Z,2.05
2022-10-19T05:12:11.156Z,2.10
2022-10-19T05:14:41.926Z,2.22
2022-10-19T05:17:10.645Z,1.90
2022-10-19T05:19:37.918Z,2.15
2022-10-19T05:22:05.210Z,2.20
2022-10-19T05:24:32.610Z,2.03
2022-10-19T05:26:59.842Z,2.13
2022-10-19T05:29:28.161Z,2.10
2022-10-19T05:31:55.455Z,2.47
2022-10-19T05:34:22.821Z,2.05
2022-10-19T05:36:49.992Z,2.27
2022-10-19T05:39:17.854Z,1.67
2022-10-19T05:41:45.813Z,2.42
2022-10-19T05:44:15.719Z,2.83
2022-10-19T05:46:43.241Z,2.50
2022-10-19T05:49:11.534Z,2.30
2022-10-19T05:51:38.941Z,2.35
2022-10-19T05:54:06.402Z,2.22
2022-10-19T05:56:33.893Z,2.40
2022-10-19T05:59:03.009Z,2.08
2022-10-19T06:01:30.488Z,2.50
2022-10-19T06:03:58.416Z,2.30
2022-10-19T06:06:26.265Z,2.40
2022-10-19T06:08:54.358Z,2.25
2022-10-19T06:11:23.014Z,2.42
2022-10-19T06:13:50.924Z,2.10
2022-10-19T06:16:19.025Z,2.45
2022-10-19T06:18:46.720Z,2.45
2022-10-19T06:21:15.846Z,2.40
2022-10-19T06:23:43.335Z,2.25
2022-10-19T06:26:12.127Z,2.07
2022-10-19T06:28:40.376Z,2.25
2022-10-19T06:31:09.350Z,2.83
2022-10-19T06:33:37.387Z,2.20
2022-10-19T06:36:15.126Z,2.50
2022-10-19T06:38:42.854Z,2.73
2022-10-19T06:41:10.850Z,2.13
2022-10-19T06:43:38.318Z,1.80
2022-10-19T06:46:10.987Z,1.80
2022-10-19T06:48:38.489Z,2.70
2022-10-19T06:51:07.585Z,2.10
2022-10-19T06:53:35.795Z,2.13
2022-10-19T06:56:04.192Z,1.73
2022-10-19T06:58:31.512Z,1.70
2022-10-19T07:00:59.817Z,2.10
2022-10-19T07:03:28.080Z,2.10
2022-10-19T07:05:59.848Z,1.67
2022-10-19T07:08:28.305Z,2.10
2022-10-19T07:10:59.882Z,2.10
2022-10-19T07:13:27.972Z,1.90
2022-10-19T07:16:05.469Z,2.20
2022-10-19T07:18:33.095Z,1.63
2022-10-19T07:21:01.875Z,2.00
2022-10-19T07:23:29.861Z,2.25
2022-10-19T07:26:01.790Z,1.92
2022-10-19T07:28:30.208Z,2.40
2022-10-19T07:30:57.839Z,1.50
2022-10-19T07:33:25.389Z,2.00
2022-10-19T07:35:59.025Z,2.35
2022-10-19T07:38:26.329Z,1.80
2022-10-19T07:41:00.076Z,1.77
2022-10-19T07:43:27.341Z,1.50
2022-10-19T07:46:01.131Z,2.10
2022-10-19T07:48:28.558Z,1.90
2022-10-19T07:50:56.144Z,1.83
2022-10-19T07:53:23.828Z,2.43
2022-10-19T07:55:51.091Z,2.22
2022-10-19T07:58:18.663Z,2.00
2022-10-19T08:00:46.058Z,2.30
2022-10-19T08:06:12.304Z,2.00
2022-10-19T08:08:40.151Z,2.13
2022-10-19T08:11:17.886Z,2.05
2022-10-19T08:13:45.275Z,2.15
2022-10-19T08:16:29.444Z,2.03
2022-10-19T08:18:58.452Z,2.13
2022-10-19T08:21:26.482Z,2.22
2022-10-19T08:23:53.904Z,2.13
2022-10-19T08:26:21.430Z,2.15
2022-10-19T08:28:48.711Z,1.80
2022-10-19T08:31:20.327Z,1.93
2022-10-19T08:33:49.403Z,1.98
2022-10-19T08:36:16.684Z,1.90
2022-10-19T08:38:45.095Z,1.70
2022-10-19T08:41:31.142Z,1.95
2022-10-19T08:44:03.981Z,1.63
2022-10-19T08:46:52.061Z,2.75
2022-10-19T08:49:21.377Z,2.10
2022-10-19T08:51:52.155Z,2.28
2022-10-19T08:54:20.063Z,3.15
2022-10-19T08:57:06.038Z,3.17
2022-10-19T08:59:52.822Z,1.83
2022-10-19T09:02:31.948Z,2.08
2022-10-19T09:05:02.772Z,1.90
2022-10-19T09:07:32.600Z,2.08
2022-10-19T09:10:26.319Z,2.27
2022-10-19T09:13:01.128Z,2.83
2022-10-19T09:15:37.643Z,1.73
2022-10-19T09:18:06.514Z,1.70
2022-10-19T09:20:37.659Z,1.65
2022-10-19T09:23:13.373Z,1.70
2022-10-19T09:25:41.628Z,1.60
2022-10-19T09:28:20.035Z,1.33
2022-10-19T09:30:48.754Z,1.30
2022-10-19T09:33:19.787Z,1.40
2022-10-19T09:35:47.575Z,1.37
2022-10-19T09:38:16.782Z,1.10
2022-10-19T09:40:44.759Z,1.20
2022-10-19T09:43:22.042Z,1.30
2022-10-19T09:46:02.128Z,1.08
2022-10-19T09:48:36.556Z,1.10
2022-10-19T09:51:04.677Z,1.20
2022-10-19T09:53:32.025Z,1.70
2022-10-19T09:56:07.582Z,1.50
2022-10-19T09:58:35.411Z,1.33
2022-10-19T10:01:03.579Z,1.00
2022-10-19T10:03:32.736Z,1.35
2022-10-19T10:06:03.616Z,1.20
2022-10-19T10:08:32.299Z,1.10
2022-10-19T10:11:07.097Z,1.20
2022-10-19T10:13:37.105Z,0.80
2022-10-19T10:16:05.717Z,1.35
2022-10-19T10:18:36.554Z,1.10
2022-10-19T10:21:07.050Z,1.23
2022-10-19T10:23:36.616Z,1.20
2022-10-19T10:26:04.975Z,1.30
2022-10-19T10:28:32.526Z,0.90
2022-10-19T10:31:01.254Z,1.30
2022-10-19T10:33:45.963Z,1.25
2022-10-19T10:36:13.914Z,1.23
2022-10-19T10:38:44.262Z,1.20
2022-10-19T10:41:13.073Z,1.23
2022-10-19T10:46:25.373Z,0.90
2022-10-19T10:48:53.887Z,1.00
2022-10-19T10:51:24.149Z,0.80
2022-10-19T10:53:51.790Z,1.00
2022-10-19T10:56:23.847Z,0.90
2022-10-19T10:58:54.604Z,1.02
2022-10-19T11:01:27.792Z,0.85
2022-10-19T11:03:59.144Z,1.07
2022-10-19T11:06:26.824Z,0.98
2022-10-19T11:09:20.576Z,0.80
2022-10-19T11:11:48.428Z,1.00
2022-10-19T11:14:34.607Z,0.68
2022-10-19T11:17:05.751Z,0.73
2022-10-19T11:19:35.618Z,0.80
2022-10-19T11:22:15.478Z,0.98
2022-10-19T11:24:55.686Z,0.80
2022-10-19T11:27:28.240Z,0.90
2022-10-19T11:29:58.495Z,0.60
2022-10-19T11:32:38.744Z,0.90
2022-10-19T11:35:24.850Z,0.80
2022-10-19T11:38:19.652Z,0.70
2022-10-19T11:41:17.506Z,1.17
2022-10-19T11:43:48.780Z,0.80
2022-10-19T11:46:35.883Z,1.10
2022-10-19T11:49:06.241Z,1.00
2022-10-19T11:51:33.548Z,1.00
2022-10-19T11:54:19.698Z,0.90
2022-10-19T11:57:13.366Z,0.80
2022-10-19T11:59:43.740Z,0.80
2022-10-19T12:02:29.785Z,0.95
2022-10-19T12:04:57.153Z,0.73
2022-10-19T12:07:36.489Z,0.80
2022-10-19T12:10:17.503Z,0.80
2022-10-19T12:12:46.694Z,0.93
2022-10-19T12:15:17.747Z,1.08
2022-10-19T12:17:47.679Z,0.80
2022-10-19T12:20:21.338Z,1.02
2022-10-19T12:22:49.415Z,1.23
2022-10-19T12:25:17.972Z,0.80
2022-10-19T12:27:47.746Z,0.75
2022-10-19T12:30:16.736Z,0.73
2022-10-19T12:33:04.343Z,1.00
2022-10-19T12:35:50.855Z,0.70
2022-10-19T12:38:26.418Z,0.80
2022-10-19T12:40:59.122Z,1.10
2022-10-19T12:43:27.417Z,0.95
2022-10-19T12:46:13.460Z,1.10
2022-10-19T12:48:41.579Z,1.10
2022-10-19T12:51:13.036Z,0.80
2022-10-19T12:53:41.989Z,1.15
2022-10-19T12:56:09.262Z,0.85
2022-10-19T12:58:47.458Z,1.23
2022-10-19T13:01:38.297Z,1.00
2022-10-19T13:04:25.895Z,1.45
2022-10-19T13:06:59.310Z,1.10
2022-10-19T13:09:35.983Z,1.27
2022-10-19T13:12:12.535Z,1.13
2022-10-19T13:14:49.302Z,1.07
2022-10-19T13:17:52.250Z,0.98
2022-10-19T13:20:19.745Z,1.25
2022-10-19T13:22:51.368Z,1.17
2022-10-19T13:25:18.857Z,1.00
2022-10-19T13:27:49.623Z,1.63
2022-10-19T13:30:35.952Z,1.50
2022-10-19T13:33:22.657Z,1.20
2022-10-19T13:35:50.076Z,1.23
2022-10-19T13:38:17.297Z,1.08
2022-10-19T13:40:47.857Z,1.40
2022-10-19T13:43:18.147Z,1.25
2022-10-19T13:45:54.184Z,1.30
2022-10-19T13:48:44.833Z,1.30
2022-10-19T13:51:30.905Z,1.00
2022-10-19T13:54:16.918Z,1.20
2022-10-19T13:56:54.872Z,1.25
2022-10-19T13:59:45.412Z,1.10
2022-10-19T14:02:26.416Z,1.10
2022-10-19T14:05:03.010Z,1.10
2022-10-19T14:07:33.667Z,1.20
2022-10-19T14:10:08.782Z,1.67
2022-10-19T14:12:37.641Z,1.40
2022-10-19T14:15:20.435Z,1.42
2022-10-19T14:17:48.104Z,1.60
2022-10-19T14:20:25.674Z,1.23
2022-10-19T14:22:53.055Z,1.10
2022-10-19T14:25:22.041Z,1.35
2022-10-19T14:27:52.433Z,1.05
2022-10-19T14:30:26.815Z,1.02
2022-10-19T14:32:56.868Z,1.00
2022-10-19T14:35:26.878Z,1.10
2022-10-19T14:37:54.397Z,1.02
2022-10-19T14:40:29.943Z,0.90
2022-10-19T14:42:58.158Z,0.85
2022-10-19T14:45:27.106Z,1.50
2022-10-19T14:48:14.889Z,1.40
2022-10-19T14:50:43.917Z,1.00
2022-10-19T14:53:11.112Z,1.02
2022-10-19T14:55:40.464Z,1.27
2022-10-19T14:58:13.322Z,1.33
2022-10-19T15:00:40.850Z,1.17
2022-10-19T15:03:09.132Z,1.20
2022-10-19T15:05:40.596Z,1.42
2022-10-19T15:08:12.788Z,1.50
2022-10-19T15:10:45.674Z,1.30
2022-10-19T15:13:33.854Z,1.30
2022-10-19T15:16:01.488Z,1.50
2022-10-19T15:18:48.745Z,1.20
2022-10-19T15:21:19.733Z,1.20
2022-10-19T15:23:48.320Z,0.93
2022-10-19T15:26:17.652Z,1.02
2022-10-19T15:28:45.280Z,0.95
2022-10-19T15:31:24.743Z,1.23
2022-10-19T15:33:55.481Z,1.10
2022-10-19T15:36:24.059Z,1.00
2022-10-19T15:39:17.644Z,1.35
2022-10-19T15:41:50.769Z,1.50
2022-10-19T15:44:34.423Z,1.15
2022-10-19T15:47:13.671Z,1.20
2022-10-19T15:49:44.475Z,0.90
2022-10-19T15:52:19.391Z,1.13
2022-10-19T15:54:50.534Z,1.08
2022-10-19T15:57:41.231Z,1.73
2022-10-19T16:00:13.654Z,1.25
2022-10-19T16:02:40.923Z,1.33
2022-10-19T16:05:08.639Z,1.25
2022-10-19T16:07:38.210Z,1.60
2022-10-19T16:10:05.948Z,1.67
2022-10-19T16:12:33.261Z,1.17
2022-10-19T16:15:00.538Z,1.17
2022-10-19T16:17:27.814Z,1.25
2022-10-19T16:19:55.103Z,1.35
2022-10-19T16:22:22.321Z,1.45
2022-10-19T16:24:49.636Z,1.50
2022-10-19T16:27:17.310Z,1.70
2022-10-19T16:29:45.008Z,1.45
2022-10-19T16:32:12.332Z,1.45
2022-10-19T16:34:39.680Z,1.25
2022-10-19T16:37:07.560Z,1.52
2022-10-19T16:39:35.165Z,1.93
2022-10-19T16:42:02.448Z,1.80
2022-10-19T16:44:29.700Z,1.42
2022-10-19T16:46:57.767Z,1.60
2022-10-19T16:49:25.354Z,1.67
2022-10-19T16:51:56.268Z,1.60
2022-10-19T16:54:26.498Z,1.83
2022-10-19T16:56:55.634Z,1.85
2022-10-19T16:59:22.989Z,1.70
2022-10-19T17:01:50.378Z,1.52
2022-10-19T17:04:20.990Z,1.80
2022-10-19T17:06:48.505Z,1.77
2022-10-19T17:09:41.435Z,2.08
2022-10-19T17:12:03.004Z,2.45
2022-10-19T17:14:30.227Z,2.30
2022-10-19T17:16:57.482Z,3.00
2022-10-19T17:19:24.891Z,2.17
2022-10-19T17:21:55.244Z,2.10
2022-10-19T17:24:22.989Z,1.83
2022-10-19T17:26:51.500Z,2.65
2022-10-19T17:29:19.219Z,2.97
2022-10-19T17:31:46.540Z,2.83
2022-10-19T17:34:13.910Z,2.55
2022-10-19T17:36:43.810Z,2.33
2022-10-19T17:39:17.502Z,2.67
2022-10-19T17:41:45.351Z,3.00
2022-10-19T17:44:12.845Z,2.80
2022-10-19T17:46:40.148Z,2.50
2022-10-19T17:49:07.419Z,2.33
2022-10-19T17:51:35.605Z,3.00
2022-10-19T17:54:03.941Z,2.63
2022-10-19T17:56:31.720Z,2.80
2022-10-19T17:58:59.477Z,3.00
2022-10-19T18:01:27.335Z,2.92
2022-10-19T18:03:54.658Z,3.10
2022-10-19T18:06:23.507Z,2.90
2022-10-19T18:08:52.636Z,3.20
2022-10-19T18:11:21.426Z,2.65
2022-10-19T18:13:49.500Z,3.28
2022-10-19T18:16:21.356Z,2.78
2022-10-19T18:18:49.766Z,2.90
2022-10-19T18:21:18.613Z,2.80
2022-10-19T18:23:45.961Z,3.15
2022-10-19T18:26:15.526Z,4.68
2022-10-19T18:28:43.302Z,5.93
2022-10-19T18:31:14.699Z,4.60
2022-10-19T18:33:42.025Z,4.10
2022-10-19T18:36:10.069Z,3.83
2022-10-19T18:38:37.406Z,4.50
2022-10-19T18:41:05.798Z,3.28
2022-10-19T18:43:33.339Z,3.43
2022-10-19T18:46:01.101Z,3.28
2022-10-19T18:48:29.227Z,3.30
2022-10-19T18:50:57.044Z,3.60
2022-10-19T18:53:24.692Z,3.30
2022-10-19T18:55:58.937Z,2.97
2022-10-19T18:58:26.426Z,3.33
2022-10-19T19:01:12.628Z,2.70
2022-10-19T19:03:41.383Z,3.30
2022-10-19T19:06:10.594Z,3.78
2022-10-19T19:08:38.576Z,3.00
2022-10-19T19:11:15.574Z,2.90
2022-10-19T19:13:43.597Z,2.70
2022-10-19T19:16:10.867Z,2.90
2022-10-19T19:18:38.156Z,3.00
2022-10-19T19:21:06.028Z,3.00
2022-10-19T19:23:33.747Z,2.50
2022-10-19T19:26:01.007Z,3.20
2022-10-19T19:28:28.235Z,2.80
2022-10-19T19:30:55.532Z,3.10
2022-10-19T19:33:22.897Z,3.10
2022-10-19T19:35:51.381Z,2.83
2022-10-19T19:38:18.991Z,3.40
2022-10-19T19:40:46.900Z,3.33
2022-10-19T19:43:15.027Z,3.20
2022-10-19T19:45:42.861Z,3.63
2022-10-19T19:48:11.459Z,2.90
2022-10-19T19:50:38.957Z,3.03
2022-10-19T19:53:06.228Z,3.28
2022-10-19T19:55:38.857Z,3.85
2022-10-19T19:58:06.442Z,3.50
2022-10-19T20:00:33.728Z,3.40
2022-10-19T20:03:00.957Z,3.15
2022-10-19T20:05:28.487Z,3.00
2022-10-19T20:07:55.784Z,2.75
2022-10-19T20:10:23.073Z,2.73
2022-10-19T20:12:50.316Z,2.70
2022-10-19T20:15:18.223Z,2.60
2022-10-19T20:17:46.849Z,2.60
2022-10-19T20:20:15.510Z,3.20
2022-10-19T20:22:46.183Z,3.17
2022-10-19T20:25:13.465Z,2.65
2022-10-19T20:27:40.820Z,2.92
2022-10-19T20:30:08.597Z,2.95
2022-10-19T20:32:36.136Z,3.08
2022-10-19T20:35:03.832Z,3.43
2022-10-19T20:37:31.360Z,3.17
2022-10-19T20:39:58.609Z,4.93
2022-10-19T20:42:25.979Z,3.33
2022-10-19T20:44:54.760Z,3.25
2022-10-19T20:47:22.119Z,3.60
2022-10-19T20:49:49.464Z,3.08
2022-10-19T20:52:16.774Z,2.67
2022-10-19T20:54:44.083Z,3.30
2022-10-19T20:57:11.367Z,3.28
2022-10-19T20:59:39.584Z,3.37
2022-10-19T21:02:06.831Z,3.30
2022-10-19T21:04:35.273Z,3.42
2022-10-19T21:07:04.428Z,3.00
2022-10-19T21:09:31.793Z,3.15
2022-10-19T21:11:59.165Z,3.50
2022-10-19T21:14:28.606Z,3.45
2022-10-19T21:17:00.088Z,3.38
2022-10-19T21:19:28.614Z,2.63
2022-10-19T21:22:03.158Z,2.80
2022-10-19T21:24:32.504Z,3.13
2022-10-19T21:27:04.759Z,3.50
2022-10-19T21:29:32.174Z,3.38
2022-10-19T21:31:59.831Z,3.33
2022-10-19T21:34:28.332Z,2.88
2022-10-19T21:36:55.709Z,3.47
2022-10-19T21:39:22.954Z,3.42
2022-10-19T21:41:50.498Z,3.65
2022-10-19T21:44:18.364Z,3.50
2022-10-19T21:46:48.122Z,3.03
2022-10-19T21:49:15.834Z,3.47
2022-10-19T21:51:44.790Z,2.95
2022-10-19T21:54:13.400Z,2.58
2022-10-19T21:56:40.819Z,3.45
2022-10-19T21:59:08.082Z,3.13
2022-10-19T22:01:38.677Z,4.30
2022-10-19T22:04:09.533Z,3.50
2022-10-19T22:06:37.146Z,3.00
2022-10-19T22:09:05.983Z,3.25
2022-10-19T22:11:33.279Z,3.33
2022-10-19T22:14:01.551Z,3.53
2022-10-19T22:16:29.918Z,3.00
2022-10-19T22:18:57.523Z,3.10
2022-10-19T22:21:29.888Z,3.60
2022-10-19T22:23:58.120Z,3.40
2022-10-19T22:26:27.435Z,3.73
2022-10-19T22:28:56.299Z,3.40
2022-10-19T22:31:23.693Z,3.30
2022-10-19T22:33:50.993Z,3.92
2022-10-19T22:36:18.496Z,3.90
2022-10-19T22:38:45.760Z,4.03
2022-10-19T22:41:50.481Z,3.00
2022-10-19T22:44:36.462Z,3.80
2022-10-19T22:47:03.839Z,3.40
2022-10-19T22:49:31.136Z,3.40
2022-10-19T22:51:58.366Z,3.50
2022-10-19T22:54:25.667Z,2.90
2022-10-19T22:56:53.483Z,3.60
2022-10-19T22:59:20.747Z,3.60
2022-10-19T23:01:48.109Z,2.90
2022-10-19T23:04:15.505Z,3.10
2022-10-19T23:06:42.804Z,3.80
2022-10-19T23:09:10.060Z,2.83
2022-10-19T23:11:37.335Z,3.25
2022-10-19T23:14:04.567Z,3.53
2022-10-19T23:16:31.802Z,3.47
2022-10-19T23:18:59.180Z,4.18
2022-10-19T23:21:26.446Z,3.78
2022-10-19T23:23:54.170Z,3.97
2022-10-19T23:26:21.920Z,4.22
2022-10-19T23:28:50.066Z,3.30
2022-10-19T23:31:18.553Z,3.80
2022-10-19T23:33:46.473Z,3.83
2022-10-19T23:36:15.834Z,3.72
2022-10-19T23:38:44.013Z,3.75
2022-10-19T23:41:12.192Z,4.40
2022-10-19T23:43:39.815Z,4.20
2022-10-19T23:46:07.280Z,4.25
2022-10-19T23:48:34.605Z,4.78
2022-10-19T23:51:18.765Z,4.22
2022-10-19T23:53:47.014Z,4.10
2022-10-19T23:56:15.710Z,4.90
2022-10-19T23:58:43.170Z,4.47
